ADDS METAR Data INFO
IDs: Format: Raw Decoded Include TAF

Data at: 1525 UTC 18 Jun 2018

KMOP 181516Z AUTO 26010G14KT 10SM SCT027 SCT032 27/23 A2992 RMK AO2 T02700225
KMOP 181515Z AUTO 27010G14KT 10SM SCT027 SCT032 27/23 A2992 RMK AO2 T02700226
KMOP 181455Z AUTO 27008KT 10SM BKN027 BKN032 BKN040 27/23 A2993 RMK AO2 T02710226
KMOP 181436Z AUTO 29008G15KT 10SM SCT020 SCT025 SCT040 26/22 A2994 RMK AO2 T02610222
KMOP 181435Z AUTO 29007G15KT 10SM SCT020 SCT025 SCT040 26/22 A2994 RMK AO2 T02630222
KMOP 181416Z AUTO 28006KT 10SM CLR 26/24 A2993 RMK AO2 T02620235
KMOP 181415Z AUTO 27006KT 10SM CLR 26/24 A2993 RMK AO2 T02620235
KMOP 181355Z AUTO 27003KT 10SM SCT011 SCT032 SCT040 25/23 A2992 RMK AO2 T02520233
KMOP 181336Z AUTO 30005KT 10SM SCT011 SCT032 SCT040 25/23 A2993 RMK AO2 T02500232
KMOP 181335Z AUTO 29007KT 10SM SCT011 SCT032 SCT040 25/23 A2993 RMK AO2 T02500232
KMOP 181316Z AUTO 30003KT 10SM CLR 25/24 A2992 RMK AO2 T02520236
KMOP 181315Z AUTO 31003KT 10SM CLR 25/24 A2992 RMK AO2 T02520236
KMOP 181255Z AUTO 29003KT 10SM CLR 25/24 A2991 RMK AO2 T02500235
KMOP 181236Z AUTO 32004KT 10SM CLR 25/23 A2991 RMK AO2 T02460232
KMOP 181235Z AUTO 31004KT 10SM CLR 25/23 A2990 RMK AO2 T02460232
KMOP 181216Z AUTO 23008KT 10SM CLR 24/23 A2989 RMK AO2 T02420230
KMOP 181215Z AUTO 23008KT 10SM CLR 24/23 A2989 RMK AO2 T02420230
KMOP 181155Z AUTO 23008KT 10SM CLR 24/23 A2989 RMK AO2 60009 70009 T02400229 10275 20238
KMOP 181136Z AUTO 23009KT 10SM CLR 24/23 A2989 RMK AO2 T02380229
KMOP 181135Z AUTO 23008KT 10SM CLR 24/23 A2989 RMK AO2 T02380229
KMOP 181116Z AUTO 25007KT 10SM SCT007 SCT011 SCT018 24/23 A2990 RMK AO2 T02380228
KMOP 181115Z AUTO 25007KT 10SM SCT007 SCT011 SCT018 24/23 A2990 RMK AO2 T02380228
KMOP 181055Z AUTO 24006KT 10SM -RA SCT005 BKN010 OVC034 24/23 A2991 RMK AO2 P0009 T02400228
KMOP 181036Z AUTO 27009KT 7SM +RA SCT010 SCT028 BKN050 25/22 A2992 RMK AO2 P0006 T02540217
KMOP 181035Z AUTO 27009KT 10SM +RA SCT010 SCT028 BKN050 26/22 A2993 RMK AO2 P0003 T02550216
KMOP 181016Z AUTO 26006KT 10SM CLR 26/21 A2991 RMK AO2 T02570213
KMOP 181015Z AUTO 26006KT 10SM CLR 26/21 A2991 RMK AO2 T02570213
KMOP 180955Z AUTO 26008KT 10SM SCT045 SCT055 26/21 A2991 RMK AO2 T02620212
KMOP 180936Z AUTO 24007KT 10SM CLR 26/21 A2989 RMK AO2 T02630212
KMOP 180935Z AUTO 24006KT 10SM CLR 26/21 A2989 RMK AO2 T02620212
KMOP 180916Z AUTO 23006KT 10SM CLR 26/22 A2990 RMK AO2 T02600215
KMOP 180915Z AUTO 23005KT 10SM CLR 26/22 A2989 RMK AO2 T02600215
KMOP 180855Z AUTO 23004KT 10SM CLR 26/22 A2990 RMK AO2 T02550217
KMOP 180836Z AUTO 26003KT 10SM CLR 26/22 A2991 RMK AO2 T02600215
KMOP 180835Z AUTO 27003KT 10SM CLR 26/22 A2991 RMK AO2 T02600215
KMOP 180816Z AUTO 27003KT 10SM CLR 26/22 A2991 RMK AO2 T02640215
KMOP 180815Z AUTO 27003KT 10SM CLR 26/22 A2991 RMK AO2 T02640215
KMOP 180755Z AUTO 28007KT 10SM CLR 27/21 A2991 RMK AO2 T02660213
KMOP 180736Z AUTO 24006KT 10SM CLR 27/21 A2990 RMK AO2 T02680212
KMOP 180735Z AUTO 24008KT 10SM CLR 27/21 A2990 RMK AO2 T02680212
KMOP 180716Z AUTO 24007KT 10SM CLR 27/21 A2991 RMK AO2 T02700210
KMOP 180715Z AUTO 24008KT 10SM CLR 27/21 A2990 RMK AO2 T02700210
KMOP 180655Z AUTO 24010G14KT 10SM CLR 27/21 A2990 RMK AO2 T02710208
KMOP 180636Z AUTO 23008KT 10SM CLR 27/21 A2990 RMK AO2 T02720207
KMOP 180635Z AUTO 23009KT 10SM CLR 27/21 A2990 RMK AO2 T02710207
KMOP 180616Z AUTO 23008KT 10SM CLR 27/21 A2991 RMK AO2 T02740206
KMOP 180615Z AUTO 23009KT 10SM CLR 28/21 A2991 RMK AO2 T02750206
KMOP 180555Z AUTO 23008KT 10SM CLR 28/21 A2992 RMK AO2 T02760206 10315 20275 403400182
KMOP 180536Z AUTO 24008KT 10SM CLR 28/21 A2993 RMK AO2 T02770206
KMOP 180535Z AUTO 23010KT 10SM CLR 28/21 A2993 RMK AO2 T02770206
KMOP 180516Z AUTO 24008KT 10SM CLR 28/21 A2993 RMK AO2 T02760206
KMOP 180515Z AUTO 24008KT 10SM CLR 28/21 A2993 RMK AO2 T02770206
KMOP 180455Z AUTO 23008KT 10SM CLR 28/21 A2993 RMK AO2 T02800206
KMOP 180436Z AUTO 23007KT 10SM CLR 28/21 A2993 RMK AO2 T02810206
KMOP 180435Z AUTO 23007KT 10SM CLR 28/21 A2993 RMK AO2 T02810206
KMOP 180416Z AUTO 23008KT 10SM CLR 28/21 A2993 RMK AO2 T02810207
KMOP 180415Z AUTO 23008KT 10SM CLR 28/21 A2993 RMK AO2 T02800207
KMOP 180355Z AUTO 23008KT 10SM CLR 28/21 A2994 RMK AO2 T02840207
KMOP 180336Z AUTO 23009KT 10SM CLR 28/21 A2994 RMK AO2 T02820208
KMOP 180335Z AUTO 22009KT 10SM CLR 28/21 A2994 RMK AO2 T02820208
KMOP 180316Z AUTO 22007KT 10SM CLR 28/21 A2994 RMK AO2 T02840209
KMOP 180315Z AUTO 23008KT 10SM CLR 28/21 A2994 RMK AO2 T02840209
KMOP 180256Z AUTO 21004KT 10SM CLR 28/21 A2993 RMK AO2 T02780210
KMOP 180255Z AUTO 21004KT 10SM CLR 28/21 A2993 RMK AO2 T02780210
KMOP 180236Z AUTO 20004KT 10SM CLR 28/21 A2993 RMK AO2 T02810210
KMOP 180235Z AUTO 20004KT 10SM CLR 28/21 A2993 RMK AO2 T02810210
KMOP 180216Z AUTO 22004KT 10SM CLR 29/21 A2994 RMK AO2 T02850210
KMOP 180215Z AUTO 22004KT 10SM CLR 29/21 A2994 RMK AO2 T02850210
KMOP 180156Z AUTO 22004KT 10SM CLR 29/21 A2993 RMK AO2 T02860208
KMOP 180155Z AUTO 22004KT 10SM CLR 29/21 A2993 RMK AO2 T02860207
KMOP 180136Z AUTO 22005KT 10SM CLR 29/21 A2993 RMK AO2 T02940206
KMOP 180135Z AUTO 22005KT 10SM CLR 30/21 A2993 RMK AO2 T02950206
KMOP 180116Z AUTO 23006KT 10SM CLR 30/21 A2993 RMK AO2 T02950207
KMOP 180115Z AUTO 23006KT 10SM CLR 30/21 A2992 RMK AO2 T02960207
KMOP 180056Z AUTO 23006KT 10SM CLR 30/21 A2992 RMK AO2 T03010209
KMOP 180055Z AUTO 22006KT 10SM CLR 30/21 A2992 RMK AO2 T03010209
KMOP 180036Z AUTO 23007KT 10SM CLR 31/21 A2992 RMK AO2 T03060210
KMOP 180035Z AUTO 23007KT 10SM CLR 31/21 A2992 RMK AO2 T03060211
KMOP 180016Z AUTO 22007KT 10SM CLR 31/21 A2992 RMK AO2 T03100211
KMOP 180015Z AUTO 23006KT 10SM CLR 31/21 A2992 RMK AO2 T03100211
KMOP 172356Z AUTO 23013G22KT 10SM CLR 32/21 A2991 RMK AO2 T03150208 10340 20315
KMOP 172355Z AUTO 23013G22KT 10SM CLR 32/21 A2991 RMK AO2 T03150209 10340 20315
KMOP 172336Z AUTO 22013G16KT 10SM CLR 32/21 A2991 RMK AO2 T03160213
KMOP 172335Z AUTO 22013G16KT 10SM CLR 32/21 A2991 RMK AO2 T03160214
KMOP 172316Z AUTO 22012G16KT 10SM CLR 32/21 A2992 RMK AO2 T03200211
KMOP 172315Z AUTO 22013G17KT 10SM CLR 32/21 A2992 RMK AO2 T03200211
KMOP 172256Z AUTO 24009G14KT 10SM CLR 32/22 A2992 RMK AO2 T03220216
KMOP 172255Z AUTO 23010G14KT 10SM CLR 32/22 A2992 RMK AO2 T03220216
KMOP 172236Z AUTO 24007G17KT 10SM CLR 32/21 A2993 RMK AO2 T03240214
KMOP 172235Z AUTO 24008G17KT 10SM CLR 32/21 A2993 RMK AO2 T03230213
KMOP 172216Z AUTO 23015G19KT 10SM CLR 33/20 A2993 RMK AO2 T03250204
KMOP 172215Z AUTO 23014G19KT 10SM CLR 33/21 A2993 RMK AO2 T03250205
KMOP 172156Z AUTO 24013G19KT 10SM CLR 33/21 A2994 RMK AO2 T03300210
KMOP 172155Z AUTO 24013G19KT 10SM CLR 33/21 A2994 RMK AO2 T03290210
KMOP 172135Z AUTO 23010G18KT 10SM CLR 33/21 A2994 RMK AO2 T03300211
KMOP 172116Z AUTO 24014G20KT 10SM CLR 33/21 A2994 RMK AO2 T03290208
KMOP 172115Z AUTO 24013G18KT 10SM CLR 33/21 A2994 RMK AO2 T03290207
KMOP 172056Z AUTO 24014G17KT 10SM CLR 33/21 A2995 RMK AO2 T03320210
KMOP 172055Z AUTO 23013G17KT 10SM CLR 33/21 A2995 RMK AO2 T03320210
KMOP 172035Z AUTO 22011G17KT 10SM CLR 33/21 A2995 RMK AO2 T03320208
KMOP 172016Z AUTO 22013G19KT 10SM SCT050 SCT070 33/21 A2996 RMK AO2 T03320211
KMOP 172015Z AUTO 23012G19KT 10SM SCT050 SCT070 33/21 A2996 RMK AO2 T03320211
KMOP 171956Z AUTO 23013G19KT 10SM CLR 34/21 A2996 RMK AO2 T03390214
KMOP 171955Z AUTO 22013G19KT 10SM CLR 34/21 A2996 RMK AO2 T03400214
KMOP 171935Z AUTO 24015G20KT 10SM CLR 33/21 A2996 RMK AO2 T03330206
KMOP 171916Z AUTO 20015G19KT 10SM CLR 33/21 A2996 RMK AO2 T03330214
KMOP 171915Z AUTO 21013G19KT 10SM CLR 33/22 A2996 RMK AO2 T03340216
KMOP 171856Z AUTO 20009G14KT 10SM CLR 33/22 A2997 RMK AO2 T03300216
KMOP 171855Z AUTO 20008G14KT 10SM SCT050 33/22 A2997 RMK AO2 T03310216
KMOP 171835Z AUTO 25012G15KT 10SM SCT048 33/21 A2997 RMK AO2 T03320214
KMOP 171816Z AUTO 24010G16KT 10SM SCT048 SCT085 33/21 A2998 RMK AO2 T03280214
KMOP 171815Z AUTO 25011G16KT 10SM SCT048 SCT085 33/22 A2998 RMK AO2 T03280216
KMOP 171756Z AUTO 22010G14KT 10SM SCT048 33/22 A2998 RMK AO2 T03270222 10327 20241
KMOP 171755Z AUTO 22010G14KT 10SM SCT048 33/22 A2998 RMK AO2 T03250221 10327 20241
KMOP 171735Z AUTO 24009G16KT 10SM SCT044 33/22 A2998 RMK AO2 T03260220
KMOP 171716Z AUTO 23011G14KT 10SM SCT042 SCT048 32/22 A2998 RMK AO2 T03180223
KMOP 171715Z AUTO 22010G14KT 10SM SCT042 SCT048 32/22 A2998 RMK AO2 T03190223
KMOP 171656Z AUTO 22008KT 10SM CLR 31/23 A3000 RMK AO2 T03130231
KMOP 171655Z AUTO 22008KT 10SM CLR 31/23 A3000 RMK AO2 T03120229
KMOP 171635Z AUTO 24008KT 10SM CLR 31/23 A3000 RMK AO2 T03060228
KMOP 171616Z AUTO 23006G14KT 10SM CLR 30/23 A3000 RMK AO2 T03030231
KMOP 171615Z AUTO 24006G14KT 10SM CLR 30/23 A3000 RMK AO2 T03030230
KMOP 171556Z AUTO 22008KT 10SM CLR 30/23 A3000 RMK AO2 T03010229
KMOP 171555Z AUTO 22007KT 10SM CLR 30/23 A3000 RMK AO2 T03000228
KMOP 171535Z AUTO 22008KT 10SM CLR 30/23 A3001 RMK AO2 T03000228
KMOP 171516Z AUTO 24008KT 10SM CLR 30/23 A3001 RMK AO2 T03000229
KMOP 171515Z AUTO 24009KT 10SM CLR 30/23 A3001 RMK AO2 T03000230
KMOP 171456Z AUTO 23006KT 10SM CLR 29/23 A3001 RMK AO2 T02940231
KMOP 171455Z AUTO 24005KT 10SM CLR 29/23 A3001 RMK AO2 T02940231
KMOP 171435Z AUTO 22006KT 10SM CLR 29/23 A3001 RMK AO2 T02850231
KMOP 171416Z AUTO 23006KT 10SM CLR 28/23 A3002 RMK AO2 T02800226
KMOP 171415Z AUTO 23007KT 10SM CLR 28/23 A3002 RMK AO2 T02800226
KMOP 171356Z AUTO 23006KT 10SM CLR 28/23 A3001 RMK AO2 T02760226
KMOP 171355Z AUTO 22006KT 10SM CLR 28/23 A3001 RMK AO2 T02750226
KMOP 171335Z AUTO 22007KT 10SM CLR 28/23 A3001 RMK AO2 T02750226
KMOP 171316Z AUTO 24006KT 10SM CLR 27/23 A3001 RMK AO2 T02710226
KMOP 171315Z AUTO 24006KT 10SM CLR 27/23 A3001 RMK AO2 T02710227
KMOP 171256Z AUTO 25006KT 10SM CLR 27/22 A3001 RMK AO2 T02660224
KMOP 171255Z AUTO 24006KT 10SM CLR 27/22 A3001 RMK AO2 T02650224
KMOP 171235Z AUTO 23004KT 10SM CLR 26/22 A3001 RMK AO2 T02590219
KMOP 171216Z AUTO 22004KT 10SM CLR 25/22 A3001 RMK AO2 T02510220
KMOP 171215Z AUTO 22004KT 10SM CLR 25/22 A3001 RMK AO2 T02500220
KMOP 171156Z AUTO 20004KT 10SM CLR 24/22 A3000 RMK AO2 T02400215 10240 20182
KMOP 171155Z AUTO 19004KT 10SM CLR 24/22 A3000 RMK AO2 T02400215 10240 20182
KMOP 171135Z AUTO 19004KT 10SM CLR 23/21 A3000 RMK AO2 T02290211
KMOP 171116Z AUTO 17003KT 10SM CLR 22/21 A2999 RMK AO2 T02220208
KMOP 171115Z AUTO 17003KT 10SM CLR 22/21 A2999 RMK AO2 T02220208
KMOP 171056Z AUTO 00000KT 10SM CLR 21/21 A3000 RMK AO2 T02140207
KMOP 171055Z AUTO 00000KT 10SM CLR 21/21 A3000 RMK AO2 T02140207
KMOP 171035Z AUTO 00000KT 10SM CLR 20/20 A3000 RMK AO2 T02030203
KMOP 171016Z AUTO 00000KT 10SM SCT050 SCT060 20/20 A3000 RMK AO2 T01980197
KMOP 171015Z AUTO 00000KT 10SM SCT050 SCT060 20/20 A3000 RMK AO2 T01980198
KMOP 170956Z AUTO 00000KT 10SM BKN050 BKN060 20/20 A3001 RMK AO2 T01960196
KMOP 170955Z AUTO 00000KT 10SM BKN050 BKN060 20/20 A3001 RMK AO2 T01960196
KMOP 170935Z AUTO 00000KT 7SM CLR 19/19 A3000 RMK AO2 T01920192
KMOP 170916Z AUTO 00000KT 7SM CLR 19/19 A2999 RMK AO2 T01880187
KMOP 170915Z AUTO 00000KT 7SM CLR 19/19 A2999 RMK AO2 T01880187
KMOP 170856Z AUTO 00000KT 10SM CLR 20/20 A2998 RMK AO2 T02020201
KMOP 170855Z AUTO 00000KT 10SM CLR 20/20 A2998 RMK AO2 T02020201
KMOP 170835Z AUTO 00000KT 10SM CLR 19/19 A2998 RMK AO2 T01930193
KMOP 170816Z AUTO 00000KT 7SM CLR 19/19 A2998 RMK AO2 T01850185
KMOP 170815Z AUTO 00000KT 7SM CLR 19/19 A2998 RMK AO2 T01850185
KMOP 170756Z AUTO 00000KT 5SM BR CLR 19/19 A2999 RMK AO2 T01870187
KMOP 170755Z AUTO 00000KT 7SM CLR 19/19 A2999 RMK AO2 T01870187
KMOP 170735Z AUTO 00000KT 3SM BR CLR 18/18 A2998 RMK AO2 T01820182
KMOP 170716Z AUTO 00000KT 5SM BR CLR 19/19 A2999 RMK AO2 T01860186
KMOP 170715Z AUTO 00000KT 5SM BR CLR 19/19 A2999 RMK AO2 T01860186
KMOP 170656Z AUTO 00000KT 5SM BR CLR 19/19 A2998 RMK AO2 T01890189
KMOP 170655Z AUTO 00000KT 5SM BR CLR 19/19 A2998 RMK AO2 T01900190
KMOP 170635Z AUTO 00000KT 7SM CLR 19/19 A2999 RMK AO2 T01900190
KMOP 170616Z AUTO 00000KT 7SM CLR 20/20 A2999 RMK AO2 T01960196
KMOP 170615Z AUTO 00000KT 7SM CLR 20/20 A2999 RMK AO2 T01960196
KMOP 170556Z AUTO 00000KT 10SM CLR 20/20 A2998 RMK AO2 T01970197 10271 20191 402800186
KMOP 170555Z AUTO 00000KT 10SM CLR 20/20 A2998 RMK AO2 T01960196 10271 20191 402800186
KMOP 170535Z AUTO 00000KT 7SM CLR 19/19 A2998 RMK AO2 T01920192
KMOP 170516Z AUTO 00000KT 10SM CLR 19/19 A2998 RMK AO2 T01910191
KMOP 170515Z AUTO 00000KT 10SM CLR 19/19 A2998 RMK AO2 T01910191
KMOP 170456Z AUTO 00000KT 10SM CLR 19/19 A2998 RMK AO2 T01930192
KMOP 170455Z AUTO 00000KT 10SM CLR 19/19 A2998 RMK AO2 T01930192
KMOP 170435Z AUTO 00000KT 10SM CLR 20/20 A2999 RMK AO2 T01980196
KMOP 170416Z AUTO 00000KT 10SM CLR 20/20 A2999 RMK AO2 T02000198
KMOP 170415Z AUTO 00000KT 10SM CLR 20/20 A2999 RMK AO2 T02000198
KMOP 170356Z AUTO 00000KT 10SM CLR 20/20 A3000 RMK AO2 T01970196
KMOP 170355Z AUTO 00000KT 10SM CLR 20/20 A3000 RMK AO2 T01960195
KMOP 170335Z AUTO 00000KT 10SM CLR 20/20 A3000 RMK AO2 T02020200